Archival Weather

Chicago O'Hare International

Chicago, Illinois (KORD)

Report from: Wednesday, February 16, 2022 11:51 PM CST
Current time: Saturday, February 4, 2023 11:31 PM CST

Current weather
Weather history
Weather forecast

Present weatherHeavy rain, mist
Temperature5.0°C (41.0°F)
Wind chill0.3°C (32.5°F)
Dew point3.3°C (37.9°F)
Winds 15 kts (7.7 m/s, 17.3 mph) North (350°)
Visibility3 mi. (4.8 km)
Clouds Ceiling: Overcast 700 ft. (213 m)
Altimeter29.82 in.Hg (1010 mB)
Precipitiation0.15 in. (4 mm)
Precip last 3 hours0.80 in. (20 mm)
Relative humidity89 %
Density altitude-978 ft. (-298 m)
Sea-level pressure101.0 kPa (1010 mB, 29.83 in.Hg)
Max temp last 6 hours12.8°C (55.0°F)
Min temp last 6 hours5.0°C (41.0°F)
Max temp last 24 hours12.8°C (55.0°F)
Min temp last 24 hours5.0°C (41.0°F)
Remarks Automated weather observing station with precipitation discriminator
Pressure rising more quickly
Flight conditions Instrument Meteorological Conditions
Raw dataKORD 170551Z 35015KT 3SM +RA BR OVC007 05/03 A2982 RMK AO2 SLP102 P0015 60080 T00500033 10128 20050 401280050 53011
An unhandled exception has occurred. See browser dev tools for details. Reload 🗙